Time;durP1;ratioP1;P1;durP2;ratioP2;P2;SDS_P1;SDS_P2;PMS_P1;PMS_P2;Temp;Humidity;BMP_temperature;BMP_pressure;BME280_temperature;BME280_humidity;BME280_pressure;Samples;Min_cycle;Max_cycle;Signal;HPM_P1;HPM_P2
2022/08/08 00:00:21;;;;;;;4.82;3.20;;;16.50;90.40;;;;;;5078434;28;20130;-46
2022/08/08 00:02:55;;;;;;;6.80;4.15;;;16.40;90.30;;;;;;5099701;28;20047;-46
2022/08/08 00:05:26;;;;;;;7.10;3.30;;;16.40;91.00;;;;;;5111890;27;20544;-50
2022/08/08 00:07:56;;;;;;;4.32;3.17;;;16.30;91.10;;;;;;5115729;28;20628;-49
2022/08/08 00:10:28;;;;;;;5.13;3.40;;;16.20;91.00;;;;;;5116077;27;20097;-50
2022/08/08 00:12:59;;;;;;;3.88;2.80;;;16.20;91.30;;;;;;5107747;27;20109;-49
2022/08/08 00:15:27;;;;;;;5.07;3.20;;;16.10;91.20;;;;;;5107233;28;20127;-49
2022/08/08 00:17:56;;;;;;;4.53;3.13;;;16.10;91.00;;;;;;5083415;28;20338;-49
2022/08/08 00:20:26;;;;;;;6.20;3.50;;;16.10;91.20;;;;;;5109751;28;20136;-50
2022/08/08 00:22:55;;;;;;;6.15;3.42;;;16.10;91.10;;;;;;5097855;27;20083;-49
2022/08/08 00:25:24;;;;;;;4.80;3.00;;;16.10;91.10;;;;;;5095462;27;20126;-47
2022/08/08 00:27:52;;;;;;;4.97;3.47;;;16.10;90.80;;;;;;5109238;28;20131;-49
2022/08/08 00:30:19;;;;;;;7.57;3.83;;;16.10;91.10;;;;;;5112764;28;20071;-43
2022/08/08 00:32:47;;;;;;;4.80;3.60;;;16.00;91.30;;;;;;5079800;28;20135;-50
2022/08/08 00:35:34;;;;;;;5.90;3.63;;;16.00;91.40;;;;;;5095426;28;20126;-49
2022/08/08 00:38:32;;;;;;;4.28;3.25;;;16.00;91.10;;;;;;5081731;28;20055;-46
2022/08/08 00:41:32;;;;;;;5.35;3.30;;;15.90;90.90;;;;;;5103646;28;20048;-48
2022/08/08 00:44:24;;;;;;;4.18;3.00;;;15.90;91.10;;;;;;5095170;28;20523;-46
2022/08/08 00:47:39;;;;;;;4.38;3.58;;;15.90;91.30;;;;;;5099501;28;20469;-49
2022/08/08 00:50:40;;;;;;;4.32;3.75;;;15.80;91.80;;;;;;5092209;28;20048;-42
2022/08/08 00:53:09;;;;;;;4.50;3.38;;;15.70;92.50;;;;;;5077093;28;20083;-46
2022/08/08 00:56:07;;;;;;;5.03;4.18;;;15.60;92.90;;;;;;5112425;27;20047;-51
2022/08/08 00:58:51;;;;;;;10.40;4.07;;;15.50;92.50;;;;;;5135770;27;20054;-51
2022/08/08 01:01:21;;;;;;;4.70;3.95;;;15.50;92.70;;;;;;5095234;28;20434;-49
2022/08/08 01:04:13;;;;;;;6.40;4.30;;;15.40;93.10;;;;;;5100424;27;20057;-50
2022/08/08 01:07:28;;;;;;;6.18;4.60;;;15.40;92.90;;;;;;5081248;28;20105;-46
2022/08/08 01:10:13;;;;;;;3.95;3.47;;;15.40;92.80;;;;;;5071437;28;20105;-45
2022/08/08 01:13:28;;;;;;;5.70;4.15;;;15.40;93.40;;;;;;5092161;28;20122;-48
2022/08/08 01:16:27;;;;;;;4.68;3.78;;;15.40;93.70;;;;;;5103329;28;20083;-44
2022/08/08 01:19:08;;;;;;;7.05;3.70;;;15.20;94.00;;;;;;5054852;28;20056;-47
2022/08/08 01:21:45;;;;;;;3.97;3.35;;;15.10;94.10;;;;;;5094880;28;20113;-49
2022/08/08 01:24:36;;;;;;;5.78;3.50;;;15.10;94.10;;;;;;5112169;27;20130;-49
2022/08/08 01:27:40;;;;;;;4.70;3.80;;;15.10;94.10;;;;;;5078373;28;20051;-50
2022/08/08 01:31:04;;;;;;;4.18;3.08;;;15.10;94.00;;;;;;5095407;28;20134;-48
2022/08/08 01:33:48;;;;;;;5.65;4.32;;;15.10;93.70;;;;;;5100119;27;20119;-50
2022/08/08 01:37:08;;;;;;;7.20;4.05;;;15.00;94.20;;;;;;5098512;28;20372;-49
2022/08/08 01:39:44;;;;;;;4.40;3.75;;;15.00;93.90;;;;;;5084376;28;20482;-48
2022/08/08 01:42:14;;;;;;;6.53;4.45;;;15.00;94.50;;;;;;5108005;28;20119;-42
2022/08/08 01:44:58;;;;;;;5.25;4.63;;;15.00;94.70;;;;;;5098283;27;20079;-48
2022/08/08 01:47:30;;;;;;;5.90;3.90;;;15.00;94.50;;;;;;5108223;27;20055;-46
2022/08/08 01:50:06;;;;;;;4.22;3.75;;;15.00;94.50;;;;;;5095750;27;20080;-49
2022/08/08 01:52:38;;;;;;;4.18;3.78;;;15.00;94.40;;;;;;5081957;28;20475;-46
2022/08/08 01:55:06;;;;;;;;;;;15.00;94.20;;;;;;5099491;27;20086;-52
2022/08/08 01:57:38;;;;;;;5.05;4.55;;;14.90;93.40;;;;;;5102301;28;20006;-50
2022/08/08 02:00:12;;;;;;;5.65;4.35;;;14.80;94.30;;;;;;5109311;28;20082;-48
2022/08/08 02:02:52;;;;;;;7.28;3.92;;;14.90;94.40;;;;;;5078125;28;20052;-44
2022/08/08 02:05:27;;;;;;;6.30;4.00;;;14.90;94.40;;;;;;5097000;28;20414;-50
2022/08/08 02:08:03;;;;;;;5.78;4.43;;;14.90;94.60;;;;;;5105978;27;20159;-47
2022/08/08 02:10:42;;;;;;;4.43;3.70;;;14.90;94.50;;;;;;5082892;28;20479;-50
2022/08/08 02:13:12;;;;;;;4.00;3.53;;;14.90;94.50;;;;;;5089503;28;20054;-47
2022/08/08 02:15:41;;;;;;;4.75;3.63;;;14.90;94.50;;;;;;5110332;28;20698;-51
2022/08/08 02:18:11;;;;;;;3.75;2.95;;;14.90;94.60;;;;;;5096651;28;20058;-48
2022/08/08 02:20:42;;;;;;;5.22;4.30;;;14.90;94.60;;;;;;5097644;27;20131;-47
2022/08/08 02:23:11;;;;;;;4.03;3.63;;;14.90;94.70;;;;;;5075273;28;20044;-52
2022/08/08 02:25:48;;;;;;;5.70;3.65;;;14.80;94.60;;;;;;5091167;28;20313;-51
2022/08/08 02:28:17;;;;;;;5.50;3.80;;;14.80;94.60;;;;;;5076371;28;20050;-47
2022/08/08 02:30:48;;;;;;;4.30;3.90;;;14.80;94.70;;;;;;5083739;28;20147;-51
2022/08/08 02:33:28;;;;;;;3.17;2.70;;;14.80;94.60;;;;;;5076571;28;20087;-50
2022/08/08 02:36:02;;;;;;;5.90;3.85;;;14.80;94.50;;;;;;5098562;28;20083;-48
2022/08/08 02:38:52;;;;;;;5.63;4.63;;;14.80;94.50;;;;;;5094708;28;20090;-47
2022/08/08 02:41:49;;;;;;;5.28;4.00;;;14.70;94.40;;;;;;5099721;28;20504;-51
2022/08/08 02:44:36;;;;;;;8.23;4.50;;;14.70;94.70;;;;;;5093487;28;20092;-49
2022/08/08 02:47:35;;;;;;;6.15;4.00;;;14.70;94.80;;;;;;5070136;28;20380;-48
2022/08/08 02:50:34;;;;;;;4.70;4.30;;;14.60;94.90;;;;;;5080547;28;20092;-50
2022/08/08 02:53:15;;;;;;;5.20;3.90;;;14.60;94.90;;;;;;5055256;28;20058;-48
2022/08/08 02:56:07;;;;;;;4.25;3.55;;;14.60;95.00;;;;;;5092877;28;20095;-51
2022/08/08 02:59:14;;;;;;;4.43;3.78;;;14.50;94.80;;;;;;5090423;28;20082;-47
2022/08/08 03:02:28;;;;;;;4.82;4.32;;;14.50;94.80;;;;;;5100131;28;20131;-49
2022/08/08 03:05:20;;;;;;;4.15;3.75;;;14.50;94.90;;;;;;5056822;28;20139;-46
2022/08/08 03:08:26;;;;;;;5.43;4.28;;;14.40;95.20;;;;;;5106980;28;20086;-42
2022/08/08 03:11:41;;;;;;;4.43;3.60;;;14.40;95.00;;;;;;5097148;28;20056;-43
2022/08/08 03:14:39;;;;;;;5.13;3.47;;;14.40;94.70;;;;;;5078184;28;20095;-49
2022/08/08 03:17:10;;;;;;;3.88;3.35;;;14.40;95.40;;;;;;5092075;28;20044;-49
2022/08/08 03:19:45;;;;;;;;;;;14.40;95.40;;;;;;5112677;28;20122;-43
2022/08/08 03:22:12;;;;;;;7.18;4.20;;;14.30;94.40;;;;;;5112137;28;20006;-49
2022/08/08 03:24:40;;;;;;;5.68;4.18;;;14.30;95.30;;;;;;5076635;28;20084;-44
2022/08/08 03:27:09;;;;;;;4.07;3.58;;;14.30;95.40;;;;;;5077094;28;20125;-48
2022/08/08 03:29:42;;;;;;;3.72;3.38;;;14.30;95.60;;;;;;5104960;27;20083;-47
2022/08/08 03:34:53;;;;;;;4.15;3.38;;;14.30;95.50;;;;;;5109653;27;20097;-45
2022/08/08 03:37:20;;;;;;;7.05;3.78;;;14.30;95.50;;;;;;5099659;28;20476;-46
2022/08/08 03:39:48;;;;;;;5.20;3.63;;;14.30;95.50;;;;;;5079714;28;20059;-46
2022/08/08 03:42:15;;;;;;;4.97;3.72;;;14.30;95.50;;;;;;5097272;28;20062;-44
2022/08/08 03:44:42;;;;;;;3.67;3.30;;;14.20;95.40;;;;;;5097451;28;20154;-42
2022/08/08 03:47:09;;;;;;;4.50;3.97;;;14.20;95.30;;;;;;5082985;28;20483;-46
2022/08/08 03:49:35;;;;;;;4.53;3.70;;;14.20;95.40;;;;;;5107394;28;20052;-41
2022/08/08 03:52:02;;;;;;;4.60;3.88;;;14.20;95.50;;;;;;5097765;28;20083;-46
2022/08/08 03:54:29;;;;;;;3.28;2.97;;;14.20;95.70;;;;;;5096387;28;20459;-45
2022/08/08 03:56:57;;;;;;;4.22;3.58;;;14.20;95.70;;;;;;5095307;28;20558;-48
2022/08/08 03:59:29;;;;;;;3.85;3.25;;;14.10;96.10;;;;;;5095293;27;20491;-46
2022/08/08 04:01:55;;;;;;;5.32;4.07;;;14.10;96.00;;;;;;5102857;28;20075;-42
2022/08/08 04:04:22;;;;;;;4.50;3.58;;;14.10;96.10;;;;;;5108064;28;20105;-47
2022/08/08 04:06:56;;;;;;;4.18;3.25;;;14.00;96.30;;;;;;5101876;27;20150;-49
2022/08/08 04:09:23;;;;;;;4.65;3.58;;;14.00;96.60;;;;;;5091401;28;20078;-46
2022/08/08 04:11:49;;;;;;;3.72;3.35;;;14.00;96.60;;;;;;5097504;28;20514;-47
2022/08/08 04:14:17;;;;;;;4.72;3.58;;;14.00;96.60;;;;;;5094158;28;20051;-49
2022/08/08 04:16:44;;;;;;;7.85;2.70;;;13.90;96.70;;;;;;5098240;28;20040;-44
2022/08/08 04:19:11;;;;;;;3.33;2.60;;;13.90;96.50;;;;;;5109479;28;20040;-51
2022/08/08 04:21:37;;;;;;;5.18;2.60;;;14.00;96.30;;;;;;5113255;28;20090;-50
2022/08/08 04:24:05;;;;;;;7.05;2.80;;;13.90;96.30;;;;;;5087860;28;20415;-50
2022/08/08 04:26:32;;;;;;;3.50;2.60;;;13.90;96.40;;;;;;5103168;27;20122;-42
2022/08/08 04:28:58;;;;;;;2.50;2.20;;;13.90;96.40;;;;;;5081325;28;20079;-50
2022/08/08 04:31:27;;;;;;;3.22;2.90;;;13.90;96.20;;;;;;5094612;28;20082;-48
2022/08/08 04:33:53;;;;;;;4.63;2.40;;;13.90;96.50;;;;;;5104352;28;20071;-44
2022/08/08 04:36:20;;;;;;;4.50;2.75;;;13.90;96.20;;;;;;5108433;28;20127;-45
2022/08/08 04:38:47;;;;;;;4.47;2.38;;;13.90;96.30;;;;;;5097339;28;20044;-48
2022/08/08 04:41:13;;;;;;;5.65;2.90;;;13.90;96.40;;;;;;5110306;28;20462;-47
2022/08/08 04:43:40;;;;;;;5.47;2.67;;;13.90;96.40;;;;;;5095429;28;20436;-49
2022/08/08 04:46:07;;;;;;;6.05;2.75;;;13.90;96.40;;;;;;5101066;27;20051;-42
2022/08/08 04:48:35;;;;;;;3.90;2.63;;;13.90;96.40;;;;;;5098902;28;20082;-47
2022/08/08 04:51:02;;;;;;;4.07;2.53;;;13.90;96.50;;;;;;5097583;28;20048;-51
2022/08/08 04:53:28;;;;;;;4.97;2.75;;;14.00;96.70;;;;;;5097387;28;20092;-40
2022/08/08 04:55:55;;;;;;;3.88;2.55;;;13.90;96.50;;;;;;5095964;28;20340;-50
2022/08/08 04:58:22;;;;;;;4.35;2.55;;;14.00;96.40;;;;;;5103978;28;20127;-50
2022/08/08 05:00:49;;;;;;;3.33;2.75;;;14.00;96.20;;;;;;5097942;28;20054;-50
2022/08/08 05:03:15;;;;;;;2.33;2.10;;;14.00;96.30;;;;;;5113645;27;20475;-47
2022/08/08 05:05:43;;;;;;;3.38;2.40;;;14.00;96.30;;;;;;5103231;28;20051;-48
2022/08/08 05:08:12;;;;;;;4.18;2.20;;;14.00;96.20;;;;;;5108216;28;20044;-49
2022/08/08 05:10:39;;;;;;;2.65;2.13;;;14.00;96.20;;;;;;5094627;28;20047;-50
2022/08/08 05:13:05;;;;;;;2.85;2.17;;;14.00;96.20;;;;;;5109113;28;20087;-47
2022/08/08 05:15:32;;;;;;;4.78;2.78;;;14.10;96.20;;;;;;5094944;28;20047;-48
2022/08/08 05:17:59;;;;;;;2.63;2.17;;;14.10;96.40;;;;;;5099669;28;20521;-50
2022/08/08 05:20:26;;;;;;;6.20;2.83;;;14.10;96.50;;;;;;5103251;27;20044;-46
2022/08/08 05:22:54;;;;;;;3.67;1.95;;;14.10;96.50;;;;;;5097779;28;20380;-48
2022/08/08 05:25:21;;;;;;;3.38;2.25;;;14.10;96.20;;;;;;5091805;28;20040;-47
2022/08/08 05:27:48;;;;;;;2.70;2.25;;;14.20;96.10;;;;;;5099103;27;20054;-45
2022/08/08 05:30:15;;;;;;;4.70;2.22;;;14.20;96.00;;;;;;5099424;28;20086;-50
2022/08/08 05:32:41;;;;;;;3.65;2.40;;;14.30;96.00;;;;;;5099452;28;20126;-47
2022/08/08 05:35:09;;;;;;;7.10;4.13;;;14.30;96.10;;;;;;5098298;28;20548;-48
2022/08/08 05:37:38;;;;;;;6.63;4.43;;;14.30;97.10;;;;;;5092901;27;20051;-47
2022/08/08 05:40:08;;;;;;;7.78;4.50;;;14.40;98.30;;;;;;5095796;28;20052;-50
2022/08/08 05:42:37;;;;;;;8.63;4.93;;;14.40;99.20;;;;;;5104576;28;20507;-49
2022/08/08 05:45:05;;;;;;;9.13;4.88;;;14.50;99.80;;;;;;5084794;28;20142;-47
2022/08/08 05:47:32;;;;;;;7.18;4.40;;;14.60;99.90;;;;;;5098650;27;20438;-42
2022/08/08 05:49:59;;;;;;;9.13;4.55;;;14.60;99.90;;;;;;5079412;28;20127;-51
2022/08/08 05:52:25;;;;;;;7.32;4.28;;;14.70;99.90;;;;;;5042518;22;20048;-49
2022/08/08 05:54:52;;;;;;;8.23;4.40;;;14.80;99.90;;;;;;5065341;28;20064;-50
2022/08/08 05:57:21;;;;;;;9.00;4.68;;;14.90;99.90;;;;;;5071520;28;20416;-50
2022/08/08 05:59:49;;;;;;;8.68;4.63;;;15.10;99.90;;;;;;5069170;28;20099;-46
2022/08/08 06:05:00;;;;;;;8.75;5.50;;;15.30;99.90;;;;;;5069385;28;20438;-47
2022/08/08 06:07:27;;;;;;;7.90;3.80;;;15.40;99.90;;;;;;5069848;28;20044;-44
2022/08/08 06:09:54;;;;;;;9.60;5.07;;;15.60;99.90;;;;;;5057430;28;20140;-49
2022/08/08 06:12:22;;;;;;;8.65;4.28;;;15.70;99.90;;;;;;5048951;28;20488;-48
2022/08/08 06:14:49;;;;;;;10.02;5.40;;;15.80;99.90;;;;;;5066842;28;20131;-48
2022/08/08 06:17:15;;;;;;;10.45;4.57;;;16.00;99.90;;;;;;5068976;28;20411;-48
2022/08/08 06:19:42;;;;;;;10.27;5.03;;;16.10;99.90;;;;;;5069591;28;20470;-50
2022/08/08 06:22:09;;;;;;;9.88;4.95;;;16.20;99.90;;;;;;5068315;28;20139;-47
2022/08/08 06:24:36;;;;;;;13.00;4.93;;;16.40;99.90;;;;;;5058272;28;20048;-52
2022/08/08 06:27:04;;;;;;;12.75;5.55;;;16.50;99.90;;;;;;5069646;28;20143;-47
2022/08/08 06:29:34;;;;;;;10.77;4.53;;;16.70;99.90;;;;;;5069561;28;20132;-48
2022/08/08 06:32:03;;;;;;;11.07;5.28;;;16.80;99.90;;;;;;5068247;28;20056;-49
2022/08/08 06:34:35;;;;;;;10.75;4.93;;;17.00;99.90;;;;;;5071318;28;20059;-45
2022/08/08 06:37:02;;;;;;;10.20;5.10;;;17.10;99.90;;;;;;5071492;28;20052;-42
2022/08/08 06:39:29;;;;;;;9.77;4.88;;;17.30;99.90;;;;;;5070403;28;20543;-44
2022/08/08 06:41:57;;;;;;;12.38;5.03;;;17.50;99.90;;;;;;5070311;28;20057;-45
2022/08/08 06:44:24;;;;;;;8.63;4.82;;;17.70;99.90;;;;;;5071247;28;20084;-52
2022/08/08 06:46:52;;;;;;;8.75;4.82;;;17.80;99.80;;;;;;5071485;28;20123;-51
2022/08/08 06:49:19;;;;;;;9.45;4.50;;;18.00;99.90;;;;;;5070703;28;20427;-48
2022/08/08 06:51:46;;;;;;;11.07;5.22;;;18.10;99.50;;;;;;5069563;28;20385;-44
2022/08/08 06:54:13;;;;;;;11.07;4.38;;;18.30;99.40;;;;;;5052775;28;20053;-46
2022/08/08 06:56:40;;;;;;;9.60;4.45;;;18.40;99.20;;;;;;5065871;28;20105;-45
2022/08/08 06:59:07;;;;;;;10.18;4.75;;;18.60;98.80;;;;;;5054736;28;20049;-47
2022/08/08 07:01:36;;;;;;;14.65;4.78;;;18.80;98.50;;;;;;5055066;28;20053;-45
2022/08/08 07:04:09;;;;;;;12.73;4.78;;;18.90;98.40;;;;;;5070125;28;20457;-46
2022/08/08 07:06:36;;;;;;;9.23;4.20;;;19.00;98.20;;;;;;5086784;28;20079;-48
2022/08/08 07:09:07;;;;;;;7.45;4.38;;;19.10;98.10;;;;;;5069560;28;20131;-50
2022/08/08 07:11:34;;;;;;;6.70;3.05;;;19.20;98.00;;;;;;5066342;28;20110;-47
2022/08/08 07:14:01;;;;;;;9.00;2.80;;;19.40;97.90;;;;;;5070578;28;20083;-51
2022/08/08 07:16:31;;;;;;;10.63;3.22;;;19.60;97.60;;;;;;5071354;28;20470;-45
2022/08/08 07:19:08;;;;;;;7.25;2.72;;;19.80;97.10;;;;;;5068049;28;20138;-44
2022/08/08 07:21:41;;;;;;;9.88;2.05;;;20.10;96.60;;;;;;5070478;28;20555;-45
2022/08/08 07:24:12;;;;;;;7.80;2.28;;;20.20;95.90;;;;;;5056444;28;20144;-43
2022/08/08 07:26:39;;;;;;;9.77;2.03;;;20.30;95.30;;;;;;5056605;28;20411;-47
2022/08/08 07:29:06;;;;;;;7.43;1.98;;;20.40;95.00;;;;;;5067721;28;20079;-51
2022/08/08 07:31:33;;;;;;;7.18;1.98;;;20.50;94.90;;;;;;5071129;28;20158;-52
2022/08/08 07:34:00;;;;;;;7.00;2.00;;;20.50;94.80;;;;;;5069232;28;20083;-51
2022/08/08 07:36:28;;;;;;;7.22;2.30;;;20.70;94.50;;;;;;5069709;28;20062;-48
2022/08/08 07:38:55;;;;;;;7.70;2.38;;;20.80;94.20;;;;;;5069846;28;20127;-46
2022/08/08 07:41:21;;;;;;;7.93;3.03;;;20.90;93.90;;;;;;5068291;28;20132;-45
2022/08/08 07:43:49;;;;;;;9.75;2.35;;;21.00;93.80;;;;;;5070390;28;20098;-49
2022/08/08 07:46:15;;;;;;;7.75;2.38;;;21.10;93.60;;;;;;5069796;28;20044;-48
2022/08/08 07:48:42;;;;;;;8.98;2.25;;;21.20;93.40;;;;;;5067680;28;20084;-47
2022/08/08 07:51:09;;;;;;;7.57;2.00;;;21.40;93.20;;;;;;5069738;28;20143;-48
2022/08/08 07:53:40;;;;;;;11.35;1.98;;;21.50;92.90;;;;;;5068498;28;20492;-46
2022/08/08 07:56:08;;;;;;;5.15;1.45;;;21.70;92.70;;;;;;5066371;28;20384;-48
2022/08/08 07:58:37;;;;;;;9.95;2.00;;;21.80;92.50;;;;;;5068422;28;20399;-44
2022/08/08 08:01:05;;;;;;;9.63;2.60;;;21.80;92.20;;;;;;5060918;28;20504;-47
2022/08/08 08:03:34;;;;;;;8.80;1.52;;;21.90;92.20;;;;;;5069766;28;20131;-44
2022/08/08 08:06:01;;;;;;;6.22;1.30;;;22.00;92.00;;;;;;5066355;28;20395;-45
2022/08/08 08:08:30;;;;;;;5.97;1.42;;;22.10;91.60;;;;;;5066380;28;20072;-47
2022/08/08 08:10:59;;;;;;;5.95;1.50;;;22.20;91.30;;;;;;5054969;28;20075;-49
2022/08/08 08:13:29;;;;;;;6.72;1.35;;;22.30;90.90;;;;;;5067222;28;20410;-47
2022/08/08 08:16:00;;;;;;;5.57;1.53;;;22.40;90.60;;;;;;5059638;28;20057;-44
2022/08/08 08:18:29;;;;;;;7.22;1.98;;;22.60;90.30;;;;;;5072653;28;20336;-50
2022/08/08 08:20:56;;;;;;;9.88;1.63;;;22.70;89.70;;;;;;5062363;28;20053;-51
2022/08/08 08:23:23;;;;;;;12.98;2.05;;;22.80;89.80;;;;;;5068937;28;20148;-52
2022/08/08 08:25:50;;;;;;;5.35;1.50;;;23.00;89.30;;;;;;5072772;28;20518;-44
2022/08/08 08:28:18;;;;;;;9.30;1.40;;;23.00;89.20;;;;;;5070389;28;20084;-53
2022/08/08 08:30:45;;;;;;;7.65;1.55;;;23.00;88.50;;;;;;5069380;28;20059;-52
2022/08/08 08:33:11;;;;;;;7.07;1.70;;;23.00;88.70;;;;;;5072124;28;20135;-51
2022/08/08 08:35:38;;;;;;;7.22;1.85;;;23.10;88.50;;;;;;5072205;28;20127;-51
2022/08/08 08:38:05;;;;;;;7.43;1.50;;;23.20;87.50;;;;;;5062737;28;20071;-48
2022/08/08 08:40:32;;;;;;;4.28;1.63;;;23.10;87.00;;;;;;5073338;28;20052;-45
2022/08/08 08:42:59;;;;;;;6.55;1.30;;;23.00;87.30;;;;;;5072574;28;20063;-46
2022/08/08 08:45:27;;;;;;;4.40;1.17;;;23.00;87.80;;;;;;5072364;28;20399;-50
2022/08/08 08:47:54;;;;;;;4.80;1.20;;;22.90;87.90;;;;;;5072488;28;20139;-50
2022/08/08 08:50:22;;;;;;;6.53;1.55;;;22.90;88.10;;;;;;5073853;28;20092;-51
2022/08/08 08:52:48;;;;;;;4.30;1.30;;;22.80;87.90;;;;;;5073347;28;20074;-50
2022/08/08 08:55:15;;;;;;;6.45;1.10;;;22.80;88.60;;;;;;5068814;28;20048;-52
2022/08/08 08:57:43;;;;;;;6.00;1.60;;;22.90;88.30;;;;;;5071670;28;20095;-51
2022/08/08 09:00:11;;;;;;;4.35;1.13;;;23.00;87.50;;;;;;5066663;28;20072;-52
2022/08/08 09:02:39;;;;;;;5.72;1.20;;;23.10;87.20;;;;;;5070186;28;20156;-52
2022/08/08 09:05:07;;;;;;;3.08;0.80;;;23.40;87.30;;;;;;5069517;28;20129;-46
2022/08/08 09:07:34;;;;;;;2.08;0.75;;;23.60;85.20;;;;;;5070264;28;20055;-54
2022/08/08 09:10:02;;;;;;;4.18;1.08;;;23.90;84.10;;;;;;5070814;28;20076;-48
2022/08/08 09:12:28;;;;;;;6.25;1.10;;;24.10;83.20;;;;;;5069353;28;20177;-42
2022/08/08 09:14:56;;;;;;;11.40;1.50;;;24.30;82.30;;;;;;5071002;28;20072;-51
2022/08/08 09:17:24;;;;;;;4.28;0.93;;;24.60;81.30;;;;;;5069350;28;20129;-53
2022/08/08 09:19:54;;;;;;;6.20;1.23;;;24.70;80.50;;;;;;5071129;28;20052;-53
2022/08/08 09:22:21;;;;;;;8.43;1.85;;;24.80;80.50;;;;;;5071733;28;20559;-49
2022/08/08 09:24:48;;;;;;;5.07;1.25;;;24.70;79.60;;;;;;5069904;28;20070;-51
2022/08/08 09:27:15;;;;;;;4.97;1.20;;;24.60;79.50;;;;;;5071502;28;20087;-50
2022/08/08 09:29:47;;;;;;;6.95;1.23;;;24.50;79.60;;;;;;5066135;28;20056;-52
2022/08/08 09:32:16;;;;;;;4.63;1.13;;;24.50;78.70;;;;;;5059967;28;20040;-49
2022/08/08 09:34:45;;;;;;;5.40;1.60;;;24.50;79.20;;;;;;5070172;28;20211;-51
2022/08/08 09:37:13;;;;;;;4.78;1.10;;;24.50;79.00;;;;;;5072109;28;20139;-48
2022/08/08 09:39:42;;;;;;;1.88;0.88;;;24.50;79.00;;;;;;5070390;28;20055;-52
2022/08/08 09:42:11;;;;;;;8.93;1.38;;;24.60;78.80;;;;;;5052685;28;20059;-52
2022/08/08 09:44:46;;;;;;;4.80;0.95;;;24.60;78.60;;;;;;5061696;28;20057;-53
2022/08/08 09:47:14;;;;;;;8.73;1.35;;;24.70;78.80;;;;;;5053040;28;20495;-51
2022/08/08 09:49:41;;;;;;;7.70;1.05;;;24.90;78.50;;;;;;5060499;28;20049;-45
2022/08/08 09:52:07;;;;;;;3.75;0.70;;;25.10;77.60;;;;;;5070031;28;20143;-48
2022/08/08 09:54:42;;;;;;;5.25;1.08;;;25.30;76.50;;;;;;5052190;28;20049;-48
2022/08/08 09:57:10;;;;;;;4.10;1.05;;;25.40;76.10;;;;;;5060400;28;20045;-50
2022/08/08 09:59:39;;;;;;;4.03;0.93;;;25.40;75.60;;;;;;5070681;28;20079;-52
2022/08/08 10:02:06;;;;;;;4.50;1.00;;;25.50;74.00;;;;;;5062661;28;20127;-45
2022/08/08 10:04:33;;;;;;;7.18;1.45;;;25.70;74.30;;;;;;5068087;28;20036;-48
2022/08/08 10:07:00;;;;;;;3.45;0.80;;;25.90;73.50;;;;;;5068998;28;20132;-50
2022/08/08 10:09:32;;;;;;;3.33;0.82;;;26.00;71.40;;;;;;5056043;28;20043;-47
2022/08/08 10:12:00;;;;;;;3.63;0.90;;;25.90;70.60;;;;;;5069177;28;20135;-51
2022/08/08 10:14:34;;;;;;;2.88;0.80;;;26.00;72.40;;;;;;5069219;28;20125;-51
2022/08/08 10:17:02;;;;;;;1.60;0.77;;;26.20;72.60;;;;;;5068554;28;20127;-51
2022/08/08 10:19:36;;;;;;;4.50;1.02;;;26.40;71.70;;;;;;5070381;28;20127;-53
2022/08/08 10:22:04;;;;;;;13.38;2.63;;;26.60;69.50;;;;;;5070040;28;20143;-54
2022/08/08 10:24:30;;;;;;;12.25;2.40;;;26.70;68.80;;;;;;5071269;28;20076;-53
2022/08/08 10:27:01;;;;;;;8.13;1.42;;;26.80;68.90;;;;;;5070133;28;20464;-53
2022/08/08 10:29:39;;;;;;;3.97;0.70;;;26.90;67.00;;;;;;5086611;28;20049;-51
2022/08/08 10:34:51;;;;;;;2.33;0.82;;;26.90;67.40;;;;;;5069759;28;20048;-53
2022/08/08 10:37:21;;;;;;;2.63;0.70;;;27.10;67.00;;;;;;5070598;28;20077;-51
2022/08/08 10:39:48;;;;;;;2.90;0.70;;;27.20;65.50;;;;;;5066067;28;20072;-53
2022/08/08 10:42:16;;;;;;;3.53;0.65;;;27.30;65.20;;;;;;5070284;28;20084;-49
2022/08/08 10:44:43;;;;;;;2.38;0.80;;;27.30;65.30;;;;;;5071237;28;20131;-51
2022/08/08 10:47:11;;;;;;;4.65;0.93;;;27.20;65.20;;;;;;5069979;28;20541;-55
2022/08/08 10:49:37;;;;;;;3.03;0.77;;;27.20;64.70;;;;;;5071446;28;20408;-54
2022/08/08 10:52:04;;;;;;;1.52;0.60;;;27.10;65.20;;;;;;5070224;28;20051;-48
2022/08/08 10:54:31;;;;;;;1.77;0.80;;;26.90;65.60;;;;;;5071804;28;20059;-55
2022/08/08 10:56:58;;;;;;;2.50;0.77;;;26.90;66.10;;;;;;5071591;28;20044;-55
2022/08/08 10:59:26;;;;;;;3.88;1.00;;;26.90;66.00;;;;;;5071158;28;20121;-54
2022/08/08 11:01:53;;;;;;;1.00;0.68;;;26.90;65.60;;;;;;5070348;28;20064;-52
2022/08/08 11:04:20;;;;;;;3.10;0.70;;;26.90;66.20;;;;;;5071631;28;20095;-50
2022/08/08 11:06:47;;;;;;;2.63;0.73;;;26.90;66.70;;;;;;5071410;28;20052;-55
2022/08/08 11:09:13;;;;;;;2.25;0.75;;;26.80;65.80;;;;;;5070472;28;20549;-56
2022/08/08 11:11:41;;;;;;;3.20;0.75;;;26.70;66.20;;;;;;5070335;28;20102;-49
2022/08/08 11:14:09;;;;;;;3.03;0.95;;;26.70;66.30;;;;;;5065657;28;20149;-51
2022/08/08 11:16:39;;;;;;;3.08;0.80;;;26.80;65.90;;;;;;5070652;28;20521;-53
2022/08/08 11:19:06;;;;;;;2.55;0.88;;;26.70;65.80;;;;;;5071005;28;20129;-50
2022/08/08 11:21:35;;;;;;;3.28;0.95;;;26.80;66.20;;;;;;5061768;28;20084;-53
2022/08/08 11:24:04;;;;;;;6.10;1.13;;;26.90;66.30;;;;;;5062565;28;20143;-54
2022/08/08 11:26:32;;;;;;;1.88;0.80;;;27.00;65.70;;;;;;5054759;28;20076;-54
2022/08/08 11:28:59;;;;;;;4.03;1.13;;;27.00;65.90;;;;;;5071543;28;20442;-54
2022/08/08 11:31:26;;;;;;;2.63;0.70;;;27.00;65.20;;;;;;5069539;28;20080;-51
2022/08/08 11:33:55;;;;;;;2.13;0.90;;;27.00;65.20;;;;;;5070280;28;20550;-54
2022/08/08 11:36:22;;;;;;;7.30;0.98;;;27.00;65.50;;;;;;5070901;28;20583;-54
2022/08/08 11:38:49;;;;;;;2.22;0.93;;;27.00;65.00;;;;;;5053791;28;20404;-51
2022/08/08 11:41:16;;;;;;;2.17;0.85;;;27.00;65.10;;;;;;5069719;28;20532;-54
2022/08/08 11:43:43;;;;;;;3.90;0.82;;;27.00;64.80;;;;;;5069949;28;20064;-49
2022/08/08 11:46:09;;;;;;;2.05;0.70;;;26.90;65.30;;;;;;5070937;28;20085;-51
2022/08/08 11:48:36;;;;;;;3.03;0.82;;;27.00;65.40;;;;;;5075516;28;20059;-53
2022/08/08 11:51:04;;;;;;;2.30;0.80;;;26.90;65.30;;;;;;5057707;28;20088;-48
2022/08/08 11:53:31;;;;;;;3.38;0.73;;;26.90;65.20;;;;;;5065042;28;20131;-53
2022/08/08 11:55:58;;;;;;;2.58;0.82;;;27.00;65.00;;;;;;5075083;28;20128;-50
2022/08/08 11:58:32;;;;;;;3.20;0.80;;;27.00;65.30;;;;;;5075177;28;20075;-51
2022/08/08 12:00:58;;;;;;;2.13;0.80;;;27.00;65.40;;;;;;5058711;28;20136;-53
2022/08/08 12:03:26;;;;;;;2.92;1.20;;;27.10;65.80;;;;;;5063299;28;20041;-51
2022/08/08 12:05:53;;;;;;;3.40;0.95;;;27.10;65.90;;;;;;5055206;28;20059;-54
2022/08/08 12:08:31;;;;;;;2.47;0.63;;;27.00;64.60;;;;;;5075394;28;20135;-51
2022/08/08 12:11:00;;;;;;;4.72;0.88;;;26.90;64.00;;;;;;5073850;28;20572;-50
2022/08/08 12:13:27;;;;;;;3.15;0.77;;;26.90;64.00;;;;;;5072046;28;20433;-53
2022/08/08 12:15:54;;;;;;;5.15;0.90;;;26.90;63.50;;;;;;5073583;28;20496;-50
2022/08/08 12:18:22;;;;;;;1.65;0.57;;;27.00;63.10;;;;;;5073735;28;20055;-51
2022/08/08 12:20:49;;;;;;;6.50;1.00;;;26.90;64.10;;;;;;5075005;28;20084;-49
2022/08/08 12:23:26;;;;;;;5.85;1.20;;;26.90;65.40;;;;;;5074495;28;20048;-54
2022/08/08 12:25:54;;;;;;;4.05;0.90;;;27.00;65.90;;;;;;5074835;28;20127;-52
2022/08/08 12:28:21;;;;;;;4.13;0.95;;;27.10;67.00;;;;;;5072478;28;20056;-49
2022/08/08 12:30:48;;;;;;;2.22;0.80;;;27.10;66.30;;;;;;5075216;28;20127;-54
2022/08/08 12:33:18;;;;;;;4.47;0.90;;;27.20;66.60;;;;;;5072342;28;20567;-53
2022/08/08 12:35:46;;;;;;;2.58;0.90;;;27.20;66.20;;;;;;5071841;28;20049;-53
2022/08/08 12:38:13;;;;;;;4.22;1.23;;;27.20;66.20;;;;;;5074112;28;20106;-53
2022/08/08 12:40:42;;;;;;;5.75;1.00;;;27.30;66.00;;;;;;5074990;28;20399;-50
2022/08/08 12:43:10;;;;;;;1.67;0.80;;;27.20;66.40;;;;;;5074868;28;20048;-54
2022/08/08 12:45:38;;;;;;;3.35;0.95;;;27.20;66.40;;;;;;5075281;28;20140;-54
2022/08/08 12:48:06;;;;;;;3.13;0.90;;;27.20;66.40;;;;;;5073731;28;20091;-54
2022/08/08 12:50:40;;;;;;;5.55;1.20;;;27.20;66.50;;;;;;5074866;28;20048;-52
2022/08/08 12:53:18;;;;;;;3.10;1.05;;;27.20;67.60;;;;;;5073284;28;20064;-54
2022/08/08 12:55:55;;;;;;;3.30;1.00;;;27.20;66.60;;;;;;5090801;28;20110;-55
2022/08/08 12:58:23;;;;;;;4.57;0.98;;;27.20;66.80;;;;;;5089433;28;20044;-50
2022/08/08 13:00:50;;;;;;;3.70;0.90;;;27.10;66.30;;;;;;5072425;28;20144;-53
2022/08/08 13:03:24;;;;;;;3.30;0.88;;;27.10;67.00;;;;;;5074668;28;20088;-54
2022/08/08 13:06:01;;;;;;;4.28;1.00;;;27.10;66.90;;;;;;5071547;28;20136;-51
2022/08/08 13:08:41;;;;;;;3.53;1.17;;;26.90;66.10;;;;;;5072972;28;20403;-55
2022/08/08 13:11:21;;;;;;;3.35;1.00;;;26.70;66.20;;;;;;5073961;28;20419;-55
2022/08/08 13:14:00;;;;;;;3.70;1.10;;;26.50;66.90;;;;;;5074612;28;20040;-54
2022/08/08 13:16:28;;;;;;;3.70;1.02;;;26.50;67.40;;;;;;5072194;28;20063;-50